sensor_id;sensor_type;location;lat;lon;timestamp;P1;durP1;ratioP1;P2;durP2;ratioP2
32455;SDS011;18912;43.270;27.942;2023-03-05T00:01:19;23.33;;;11.77;;
32455;SDS011;18912;43.270;27.942;2023-03-05T00:03:47;20.77;;;10.68;;
32455;SDS011;18912;43.270;27.942;2023-03-05T00:06:13;19.00;;;10.15;;
32455;SDS011;18912;43.270;27.942;2023-03-05T00:08:38;23.87;;;10.07;;
32455;SDS011;18912;43.270;27.942;2023-03-05T00:11:06;24.90;;;10.57;;
32455;SDS011;18912;43.270;27.942;2023-03-05T00:13:33;19.60;;;10.63;;
32455;SDS011;18912;43.270;27.942;2023-03-05T00:18:29;19.38;;;9.35;;
32455;SDS011;18912;43.270;27.942;2023-03-05T00:20:54;21.03;;;9.83;;
32455;SDS011;18912;43.270;27.942;2023-03-05T00:23:20;24.10;;;10.37;;
32455;SDS011;18912;43.270;27.942;2023-03-05T00:25:45;22.87;;;10.07;;
32455;SDS011;18912;43.270;27.942;2023-03-05T00:28:11;27.47;;;10.80;;
32455;SDS011;18912;43.270;27.942;2023-03-05T00:30:37;28.30;;;9.93;;
32455;SDS011;18912;43.270;27.942;2023-03-05T00:33:02;28.63;;;10.97;;
32455;SDS011;18912;43.270;27.942;2023-03-05T00:35:28;21.87;;;10.50;;
32455;SDS011;18912;43.270;27.942;2023-03-05T00:37:53;27.23;;;10.17;;
32455;SDS011;18912;43.270;27.942;2023-03-05T00:40:19;25.67;;;11.67;;
32455;SDS011;18912;43.270;27.942;2023-03-05T00:42:44;26.50;;;11.53;;
32455;SDS011;18912;43.270;27.942;2023-03-05T00:45:10;23.97;;;10.43;;
32455;SDS011;18912;43.270;27.942;2023-03-05T00:47:36;30.65;;;11.40;;
32455;SDS011;18912;43.270;27.942;2023-03-05T00:50:03;30.63;;;11.52;;
32455;SDS011;18912;43.270;27.942;2023-03-05T00:52:29;33.38;;;12.32;;
32455;SDS011;18912;43.270;27.942;2023-03-05T00:54:55;35.60;;;11.87;;
32455;SDS011;18912;43.270;27.942;2023-03-05T00:57:20;21.17;;;8.33;;
32455;SDS011;18912;43.270;27.942;2023-03-05T00:59:46;21.43;;;10.43;;
32455;SDS011;18912;43.270;27.942;2023-03-05T01:02:11;30.43;;;11.63;;
32455;SDS011;18912;43.270;27.942;2023-03-05T01:04:37;19.57;;;7.57;;
32455;SDS011;18912;43.270;27.942;2023-03-05T01:07:03;23.13;;;10.67;;
32455;SDS011;18912;43.270;27.942;2023-03-05T01:09:28;24.70;;;10.63;;
32455;SDS011;18912;43.270;27.942;2023-03-05T01:11:54;31.27;;;12.73;;
32455;SDS011;18912;43.270;27.942;2023-03-05T01:14:20;27.35;;;11.10;;
32455;SDS011;18912;43.270;27.942;2023-03-05T01:16:46;27.35;;;12.63;;
32455;SDS011;18912;43.270;27.942;2023-03-05T01:19:13;20.55;;;10.77;;
32455;SDS011;18912;43.270;27.942;2023-03-05T01:21:39;25.80;;;11.48;;
32455;SDS011;18912;43.270;27.942;2023-03-05T01:24:05;28.20;;;12.73;;
32455;SDS011;18912;43.270;27.942;2023-03-05T01:26:31;28.27;;;12.77;;
32455;SDS011;18912;43.270;27.942;2023-03-05T01:28:57;31.27;;;11.93;;
32455;SDS011;18912;43.270;27.942;2023-03-05T01:31:23;30.53;;;13.20;;
32455;SDS011;18912;43.270;27.942;2023-03-05T01:33:50;31.07;;;12.70;;
32455;SDS011;18912;43.270;27.942;2023-03-05T01:36:16;26.73;;;13.10;;
32455;SDS011;18912;43.270;27.942;2023-03-05T01:38:42;35.00;;;13.23;;
32455;SDS011;18912;43.270;27.942;2023-03-05T01:41:10;38.33;;;13.05;;
32455;SDS011;18912;43.270;27.942;2023-03-05T01:43:36;35.70;;;14.25;;
32455;SDS011;18912;43.270;27.942;2023-03-05T01:48:43;33.97;;;14.50;;
32455;SDS011;18912;43.270;27.942;2023-03-05T01:51:13;30.38;;;12.90;;
32455;SDS011;18912;43.270;27.942;2023-03-05T01:53:40;34.65;;;13.73;;
32455;SDS011;18912;43.270;27.942;2023-03-05T01:56:06;33.27;;;13.70;;
32455;SDS011;18912;43.270;27.942;2023-03-05T01:58:31;40.00;;;13.57;;
32455;SDS011;18912;43.270;27.942;2023-03-05T02:00:57;29.90;;;13.27;;
32455;SDS011;18912;43.270;27.942;2023-03-05T02:03:23;28.47;;;12.87;;
32455;SDS011;18912;43.270;27.942;2023-03-05T02:05:50;28.58;;;13.80;;
32455;SDS011;18912;43.270;27.942;2023-03-05T02:08:17;30.90;;;12.88;;
32455;SDS011;18912;43.270;27.942;2023-03-05T02:10:47;30.20;;;13.63;;
32455;SDS011;18912;43.270;27.942;2023-03-05T02:13:20;33.90;;;13.38;;
32455;SDS011;18912;43.270;27.942;2023-03-05T02:15:47;40.28;;;13.73;;
32455;SDS011;18912;43.270;27.942;2023-03-05T02:18:14;39.38;;;13.52;;
32455;SDS011;18912;43.270;27.942;2023-03-05T02:21:03;28.23;;;12.90;;
32455;SDS011;18912;43.270;27.942;2023-03-05T02:23:32;32.80;;;13.23;;
32455;SDS011;18912;43.270;27.942;2023-03-05T02:26:01;34.10;;;13.05;;
32455;SDS011;18912;43.270;27.942;2023-03-05T02:31:22;27.83;;;12.90;;
32455;SDS011;18912;43.270;27.942;2023-03-05T02:33:50;35.85;;;13.75;;
32455;SDS011;18912;43.270;27.942;2023-03-05T02:36:17;34.33;;;13.15;;
32455;SDS011;18912;43.270;27.942;2023-03-05T02:38:44;27.13;;;12.80;;
32455;SDS011;18912;43.270;27.942;2023-03-05T02:41:10;34.50;;;13.65;;
32455;SDS011;18912;43.270;27.942;2023-03-05T02:43:36;32.15;;;13.65;;
32455;SDS011;18912;43.270;27.942;2023-03-05T02:46:02;32.60;;;14.02;;
32455;SDS011;18912;43.270;27.942;2023-03-05T02:48:27;34.97;;;13.97;;
32455;SDS011;18912;43.270;27.942;2023-03-05T02:50:53;36.60;;;13.47;;
32455;SDS011;18912;43.270;27.942;2023-03-05T02:53:19;32.47;;;13.88;;
32455;SDS011;18912;43.270;27.942;2023-03-05T02:55:47;34.28;;;13.90;;
32455;SDS011;18912;43.270;27.942;2023-03-05T03:00:39;35.15;;;14.30;;
32455;SDS011;18912;43.270;27.942;2023-03-05T03:03:04;37.13;;;15.70;;
32455;SDS011;18912;43.270;27.942;2023-03-05T03:05:30;35.73;;;14.40;;
32455;SDS011;18912;43.270;27.942;2023-03-05T03:07:55;32.17;;;15.03;;
32455;SDS011;18912;43.270;27.942;2023-03-05T03:10:21;35.90;;;15.30;;
32455;SDS011;18912;43.270;27.942;2023-03-05T03:12:46;38.67;;;15.60;;
32455;SDS011;18912;43.270;27.942;2023-03-05T03:15:13;40.73;;;15.87;;
32455;SDS011;18912;43.270;27.942;2023-03-05T03:17:40;43.05;;;14.55;;
32455;SDS011;18912;43.270;27.942;2023-03-05T03:20:07;44.22;;;15.50;;
32455;SDS011;18912;43.270;27.942;2023-03-05T03:22:35;44.42;;;15.10;;
32455;SDS011;18912;43.270;27.942;2023-03-05T03:25:00;43.27;;;15.00;;
32455;SDS011;18912;43.270;27.942;2023-03-05T03:27:26;34.42;;;14.35;;
32455;SDS011;18912;43.270;27.942;2023-03-05T03:29:52;37.33;;;15.17;;
32455;SDS011;18912;43.270;27.942;2023-03-05T03:32:17;32.17;;;14.03;;
32455;SDS011;18912;43.270;27.942;2023-03-05T03:34:43;37.73;;;14.70;;
32455;SDS011;18912;43.270;27.942;2023-03-05T03:37:08;35.23;;;14.97;;
32455;SDS011;18912;43.270;27.942;2023-03-05T03:39:35;33.88;;;14.55;;
32455;SDS011;18912;43.270;27.942;2023-03-05T03:42:01;43.27;;;15.17;;
32455;SDS011;18912;43.270;27.942;2023-03-05T03:44:26;39.30;;;14.57;;
32455;SDS011;18912;43.270;27.942;2023-03-05T03:46:52;42.87;;;15.80;;
32455;SDS011;18912;43.270;27.942;2023-03-05T03:51:48;43.15;;;15.80;;
32455;SDS011;18912;43.270;27.942;2023-03-05T03:54:16;38.85;;;16.20;;
32455;SDS011;18912;43.270;27.942;2023-03-05T03:56:42;40.30;;;16.70;;
32455;SDS011;18912;43.270;27.942;2023-03-05T03:59:08;45.38;;;16.70;;
32455;SDS011;18912;43.270;27.942;2023-03-05T04:01:34;38.17;;;16.67;;
32455;SDS011;18912;43.270;27.942;2023-03-05T04:03:59;36.00;;;15.40;;
32455;SDS011;18912;43.270;27.942;2023-03-05T04:06:25;36.20;;;15.57;;
32455;SDS011;18912;43.270;27.942;2023-03-05T04:08:51;45.67;;;16.03;;
32455;SDS011;18912;43.270;27.942;2023-03-05T04:11:16;42.20;;;16.97;;
32455;SDS011;18912;43.270;27.942;2023-03-05T04:13:43;39.83;;;15.52;;
32455;SDS011;18912;43.270;27.942;2023-03-05T04:16:10;45.78;;;16.67;;
32455;SDS011;18912;43.270;27.942;2023-03-05T04:18:36;40.78;;;16.73;;
32455;SDS011;18912;43.270;27.942;2023-03-05T04:21:01;36.97;;;16.83;;
32455;SDS011;18912;43.270;27.942;2023-03-05T04:23:27;55.42;;;19.00;;
32455;SDS011;18912;43.270;27.942;2023-03-05T04:25:53;44.43;;;16.63;;
32455;SDS011;18912;43.270;27.942;2023-03-05T04:28:18;44.50;;;18.67;;
32455;SDS011;18912;43.270;27.942;2023-03-05T04:30:44;47.03;;;17.73;;
32455;SDS011;18912;43.270;27.942;2023-03-05T04:33:09;43.30;;;17.87;;
32455;SDS011;18912;43.270;27.942;2023-03-05T04:35:35;40.90;;;17.87;;
32455;SDS011;18912;43.270;27.942;2023-03-05T04:38:01;44.00;;;18.07;;
32455;SDS011;18912;43.270;27.942;2023-03-05T04:40:26;39.47;;;17.27;;
32455;SDS011;18912;43.270;27.942;2023-03-05T04:42:51;55.57;;;17.87;;
32455;SDS011;18912;43.270;27.942;2023-03-05T04:45:17;47.83;;;19.37;;
32455;SDS011;18912;43.270;27.942;2023-03-05T04:47:42;56.77;;;20.50;;
32455;SDS011;18912;43.270;27.942;2023-03-05T04:50:08;54.93;;;19.73;;
32455;SDS011;18912;43.270;27.942;2023-03-05T04:52:39;55.35;;;19.73;;
32455;SDS011;18912;43.270;27.942;2023-03-05T04:55:06;55.03;;;19.65;;
32455;SDS011;18912;43.270;27.942;2023-03-05T04:57:32;47.75;;;19.85;;
32455;SDS011;18912;43.270;27.942;2023-03-05T04:59:58;53.63;;;19.63;;
32455;SDS011;18912;43.270;27.942;2023-03-05T05:02:24;51.90;;;20.57;;
32455;SDS011;18912;43.270;27.942;2023-03-05T05:04:53;50.60;;;20.63;;
32455;SDS011;18912;43.270;27.942;2023-03-05T05:07:19;55.60;;;21.98;;
32455;SDS011;18912;43.270;27.942;2023-03-05T05:09:45;53.67;;;21.40;;
32455;SDS011;18912;43.270;27.942;2023-03-05T05:12:11;57.73;;;21.37;;
32455;SDS011;18912;43.270;27.942;2023-03-05T05:14:36;56.77;;;21.57;;
32455;SDS011;18912;43.270;27.942;2023-03-05T05:17:03;60.53;;;22.35;;
32455;SDS011;18912;43.270;27.942;2023-03-05T05:19:30;58.35;;;23.02;;
32455;SDS011;18912;43.270;27.942;2023-03-05T05:21:59;62.92;;;22.38;;
32455;SDS011;18912;43.270;27.942;2023-03-05T05:24:25;58.63;;;23.48;;
32455;SDS011;18912;43.270;27.942;2023-03-05T05:26:52;60.40;;;23.67;;
32455;SDS011;18912;43.270;27.942;2023-03-05T05:29:19;63.00;;;23.85;;
32455;SDS011;18912;43.270;27.942;2023-03-05T05:31:45;68.83;;;24.53;;
32455;SDS011;18912;43.270;27.942;2023-03-05T05:34:10;49.97;;;16.13;;
32455;SDS011;18912;43.270;27.942;2023-03-05T05:36:36;57.60;;;22.90;;
32455;SDS011;18912;43.270;27.942;2023-03-05T05:39:01;64.77;;;24.57;;
32455;SDS011;18912;43.270;27.942;2023-03-05T05:41:27;64.60;;;25.47;;
32455;SDS011;18912;43.270;27.942;2023-03-05T05:43:52;58.13;;;24.80;;
32455;SDS011;18912;43.270;27.942;2023-03-05T05:46:18;61.03;;;23.07;;
32455;SDS011;18912;43.270;27.942;2023-03-05T05:48:45;59.53;;;23.38;;
32455;SDS011;18912;43.270;27.942;2023-03-05T05:51:12;60.97;;;23.27;;
32455;SDS011;18912;43.270;27.942;2023-03-05T05:53:43;59.80;;;23.10;;
32455;SDS011;18912;43.270;27.942;2023-03-05T05:56:08;61.30;;;22.90;;
32455;SDS011;18912;43.270;27.942;2023-03-05T05:58:36;59.85;;;23.00;;
32455;SDS011;18912;43.270;27.942;2023-03-05T06:01:10;58.85;;;23.30;;
32455;SDS011;18912;43.270;27.942;2023-03-05T06:03:43;62.40;;;24.52;;
32455;SDS011;18912;43.270;27.942;2023-03-05T06:06:10;57.33;;;22.90;;
32455;SDS011;18912;43.270;27.942;2023-03-05T06:08:37;61.05;;;22.42;;
32455;SDS011;18912;43.270;27.942;2023-03-05T06:11:04;57.25;;;21.67;;
32455;SDS011;18912;43.270;27.942;2023-03-05T06:13:30;61.58;;;22.52;;
32455;SDS011;18912;43.270;27.942;2023-03-05T06:15:56;60.33;;;21.98;;
32455;SDS011;18912;43.270;27.942;2023-03-05T06:18:23;53.45;;;21.40;;
32455;SDS011;18912;43.270;27.942;2023-03-05T06:23:45;54.80;;;23.85;;
32455;SDS011;18912;43.270;27.942;2023-03-05T06:26:12;59.15;;;23.27;;
32455;SDS011;18912;43.270;27.942;2023-03-05T06:28:40;63.65;;;22.90;;
32455;SDS011;18912;43.270;27.942;2023-03-05T06:31:06;60.67;;;22.83;;
32455;SDS011;18912;43.270;27.942;2023-03-05T06:33:33;51.70;;;21.13;;
32455;SDS011;18912;43.270;27.942;2023-03-05T06:36:01;56.25;;;23.20;;
32455;SDS011;18912;43.270;27.942;2023-03-05T06:38:28;48.97;;;22.35;;
32455;SDS011;18912;43.270;27.942;2023-03-05T06:40:53;65.43;;;22.87;;
32455;SDS011;18912;43.270;27.942;2023-03-05T06:43:18;56.83;;;20.83;;
32455;SDS011;18912;43.270;27.942;2023-03-05T06:45:44;63.87;;;21.33;;
32455;SDS011;18912;43.270;27.942;2023-03-05T06:48:10;54.93;;;22.83;;
32455;SDS011;18912;43.270;27.942;2023-03-05T06:50:36;52.08;;;22.35;;
32455;SDS011;18912;43.270;27.942;2023-03-05T06:53:02;52.13;;;21.73;;
32455;SDS011;18912;43.270;27.942;2023-03-05T06:55:28;36.50;;;14.70;;
32455;SDS011;18912;43.270;27.942;2023-03-05T06:57:54;49.60;;;19.57;;
32455;SDS011;18912;43.270;27.942;2023-03-05T07:00:20;44.97;;;20.42;;
32455;SDS011;18912;43.270;27.942;2023-03-05T07:02:45;47.47;;;19.10;;
32455;SDS011;18912;43.270;27.942;2023-03-05T07:05:11;49.27;;;20.40;;
32455;SDS011;18912;43.270;27.942;2023-03-05T07:07:37;54.10;;;19.73;;
32455;SDS011;18912;43.270;27.942;2023-03-05T07:10:02;38.10;;;13.80;;
32455;SDS011;18912;43.270;27.942;2023-03-05T07:12:31;50.90;;;22.05;;
32455;SDS011;18912;43.270;27.942;2023-03-05T07:14:58;47.58;;;20.95;;
32455;SDS011;18912;43.270;27.942;2023-03-05T07:17:23;46.27;;;19.97;;
32455;SDS011;18912;43.270;27.942;2023-03-05T07:19:49;44.13;;;19.70;;
32455;SDS011;18912;43.270;27.942;2023-03-05T07:22:14;51.17;;;21.17;;
32455;SDS011;18912;43.270;27.942;2023-03-05T07:24:40;56.53;;;21.20;;
32455;SDS011;18912;43.270;27.942;2023-03-05T07:27:05;51.73;;;20.40;;
32455;SDS011;18912;43.270;27.942;2023-03-05T07:29:31;48.40;;;21.17;;
32455;SDS011;18912;43.270;27.942;2023-03-05T07:31:56;62.37;;;20.17;;
32455;SDS011;18912;43.270;27.942;2023-03-05T07:34:22;31.70;;;13.73;;
32455;SDS011;18912;43.270;27.942;2023-03-05T07:36:51;43.03;;;18.90;;
32455;SDS011;18912;43.270;27.942;2023-03-05T07:39:17;41.22;;;18.48;;
32455;SDS011;18912;43.270;27.942;2023-03-05T07:41:44;44.72;;;18.55;;
32455;SDS011;18912;43.270;27.942;2023-03-05T07:44:10;46.45;;;18.25;;
32455;SDS011;18912;43.270;27.942;2023-03-05T07:46:36;50.93;;;19.23;;
32455;SDS011;18912;43.270;27.942;2023-03-05T07:49:02;40.30;;;18.00;;
32455;SDS011;18912;43.270;27.942;2023-03-05T07:51:27;50.47;;;21.00;;
32455;SDS011;18912;43.270;27.942;2023-03-05T07:53:54;55.00;;;19.13;;
32455;SDS011;18912;43.270;27.942;2023-03-05T07:58:47;42.28;;;19.45;;
32455;SDS011;18912;43.270;27.942;2023-03-05T08:01:13;46.80;;;19.07;;
32455;SDS011;18912;43.270;27.942;2023-03-05T08:03:39;46.73;;;18.67;;
32455;SDS011;18912;43.270;27.942;2023-03-05T08:06:05;40.97;;;16.58;;
32455;SDS011;18912;43.270;27.942;2023-03-05T08:11:01;47.55;;;17.67;;
32455;SDS011;18912;43.270;27.942;2023-03-05T08:13:29;39.83;;;18.25;;
32455;SDS011;18912;43.270;27.942;2023-03-05T08:15:55;47.77;;;21.73;;
32455;SDS011;18912;43.270;27.942;2023-03-05T08:18:20;37.83;;;17.60;;
32455;SDS011;18912;43.270;27.942;2023-03-05T08:20:46;34.50;;;12.43;;
32455;SDS011;18912;43.270;27.942;2023-03-05T08:23:11;43.60;;;16.43;;
32455;SDS011;18912;43.270;27.942;2023-03-05T08:25:37;41.90;;;17.30;;
32455;SDS011;18912;43.270;27.942;2023-03-05T08:28:02;31.87;;;15.27;;
32455;SDS011;18912;43.270;27.942;2023-03-05T08:30:28;46.87;;;18.90;;
32455;SDS011;18912;43.270;27.942;2023-03-05T08:32:53;50.40;;;15.53;;
32455;SDS011;18912;43.270;27.942;2023-03-05T08:35:19;23.30;;;10.73;;
32455;SDS011;18912;43.270;27.942;2023-03-05T08:37:45;26.52;;;11.52;;
32455;SDS011;18912;43.270;27.942;2023-03-05T08:40:11;35.50;;;14.50;;
32455;SDS011;18912;43.270;27.942;2023-03-05T08:42:36;36.20;;;17.23;;
32455;SDS011;18912;43.270;27.942;2023-03-05T08:45:03;36.17;;;14.63;;
32455;SDS011;18912;43.270;27.942;2023-03-05T08:47:29;34.08;;;15.38;;
32455;SDS011;18912;43.270;27.942;2023-03-05T08:49:55;35.60;;;15.70;;
32455;SDS011;18912;43.270;27.942;2023-03-05T08:52:21;47.17;;;15.93;;
32455;SDS011;18912;43.270;27.942;2023-03-05T08:54:47;44.13;;;16.60;;
32455;SDS011;18912;43.270;27.942;2023-03-05T08:57:13;40.25;;;17.73;;
32455;SDS011;18912;43.270;27.942;2023-03-05T08:59:39;43.27;;;18.50;;
32455;SDS011;18912;43.270;27.942;2023-03-05T09:02:04;39.83;;;16.53;;
32455;SDS011;18912;43.270;27.942;2023-03-05T09:04:30;45.97;;;19.90;;
32455;SDS011;18912;43.270;27.942;2023-03-05T09:06:56;38.13;;;17.63;;
32455;SDS011;18912;43.270;27.942;2023-03-05T09:09:22;36.83;;;15.77;;
32455;SDS011;18912;43.270;27.942;2023-03-05T09:11:47;41.43;;;16.87;;
32455;SDS011;18912;43.270;27.942;2023-03-05T09:14:13;39.50;;;16.70;;
32455;SDS011;18912;43.270;27.942;2023-03-05T09:16:38;33.07;;;15.77;;
32455;SDS011;18912;43.270;27.942;2023-03-05T09:19:05;37.28;;;17.27;;
32455;SDS011;18912;43.270;27.942;2023-03-05T09:21:34;40.55;;;16.67;;
32455;SDS011;18912;43.270;27.942;2023-03-05T09:24:00;42.05;;;17.58;;
32455;SDS011;18912;43.270;27.942;2023-03-05T09:26:25;32.57;;;16.57;;
32455;SDS011;18912;43.270;27.942;2023-03-05T09:28:51;31.23;;;15.87;;
32455;SDS011;18912;43.270;27.942;2023-03-05T09:31:17;35.20;;;15.93;;
32455;SDS011;18912;43.270;27.942;2023-03-05T09:33:42;34.33;;;16.33;;
32455;SDS011;18912;43.270;27.942;2023-03-05T09:36:18;38.87;;;15.90;;
32455;SDS011;18912;43.270;27.942;2023-03-05T09:38:49;37.28;;;15.40;;
32455;SDS011;18912;43.270;27.942;2023-03-05T09:43:58;37.05;;;16.83;;
32455;SDS011;18912;43.270;27.942;2023-03-05T09:46:38;33.45;;;16.45;;
32455;SDS011;18912;43.270;27.942;2023-03-05T09:52:17;42.22;;;16.65;;
32455;SDS011;18912;43.270;27.942;2023-03-05T09:54:47;36.15;;;15.50;;
32455;SDS011;18912;43.270;27.942;2023-03-05T09:57:21;33.90;;;16.23;;
32455;SDS011;18912;43.270;27.942;2023-03-05T09:59:58;29.92;;;14.80;;
32455;SDS011;18912;43.270;27.942;2023-03-05T10:02:33;28.92;;;14.35;;
32455;SDS011;18912;43.270;27.942;2023-03-05T10:07:33;30.42;;;14.90;;
32455;SDS011;18912;43.270;27.942;2023-03-05T10:12:44;34.13;;;15.80;;
32455;SDS011;18912;43.270;27.942;2023-03-05T10:28:30;33.03;;;15.18;;
32455;SDS011;18912;43.270;27.942;2023-03-05T10:45:13;38.15;;;17.17;;
32455;SDS011;18912;43.270;27.942;2023-03-05T10:50:20;32.67;;;15.18;;
32455;SDS011;18912;43.270;27.942;2023-03-05T10:52:53;40.85;;;15.88;;
32455;SDS011;18912;43.270;27.942;2023-03-05T10:55:30;37.53;;;17.05;;
32455;SDS011;18912;43.270;27.942;2023-03-05T10:57:56;35.10;;;15.87;;
32455;SDS011;18912;43.270;27.942;2023-03-05T11:00:23;35.97;;;15.43;;
32455;SDS011;18912;43.270;27.942;2023-03-05T11:02:59;30.20;;;14.85;;
32455;SDS011;18912;43.270;27.942;2023-03-05T11:13:33;37.03;;;16.67;;
32455;SDS011;18912;43.270;27.942;2023-03-05T11:16:03;42.95;;;15.25;;
32455;SDS011;18912;43.270;27.942;2023-03-05T11:18:32;55.58;;;22.30;;
32455;SDS011;18912;43.270;27.942;2023-03-05T11:23:33;38.33;;;17.98;;
32455;SDS011;18912;43.270;27.942;2023-03-05T11:26:16;45.70;;;17.67;;
32455;SDS011;18912;43.270;27.942;2023-03-05T11:34:42;46.67;;;20.97;;
32455;SDS011;18912;43.270;27.942;2023-03-05T11:37:01;41.67;;;18.40;;
32455;SDS011;18912;43.270;27.942;2023-03-05T11:39:28;49.28;;;20.33;;
32455;SDS011;18912;43.270;27.942;2023-03-05T11:42:00;47.67;;;23.77;;
32455;SDS011;18912;43.270;27.942;2023-03-05T11:44:32;41.50;;;18.70;;
32455;SDS011;18912;43.270;27.942;2023-03-05T11:49:50;40.90;;;19.83;;
32455;SDS011;18912;43.270;27.942;2023-03-05T12:00:55;41.60;;;18.42;;
32455;SDS011;18912;43.270;27.942;2023-03-05T12:03:24;47.88;;;19.83;;
32455;SDS011;18912;43.270;27.942;2023-03-05T12:06:07;40.67;;;18.75;;
32455;SDS011;18912;43.270;27.942;2023-03-05T12:08:37;45.88;;;21.10;;
32455;SDS011;18912;43.270;27.942;2023-03-05T12:11:10;50.03;;;21.48;;
32455;SDS011;18912;43.270;27.942;2023-03-05T12:13:44;49.72;;;19.15;;
32455;SDS011;18912;43.270;27.942;2023-03-05T12:18:42;41.13;;;18.47;;
32455;SDS011;18912;43.270;27.942;2023-03-05T12:24:31;48.42;;;23.15;;
32455;SDS011;18912;43.270;27.942;2023-03-05T12:29:30;55.08;;;21.70;;
32455;SDS011;18912;43.270;27.942;2023-03-05T12:42:56;63.75;;;28.45;;
32455;SDS011;18912;43.270;27.942;2023-03-05T12:45:26;66.22;;;23.50;;
32455;SDS011;18912;43.270;27.942;2023-03-05T13:00:29;58.65;;;25.10;;
32455;SDS011;18912;43.270;27.942;2023-03-05T13:03:03;59.28;;;24.08;;
32455;SDS011;18912;43.270;27.942;2023-03-05T13:05:36;52.83;;;24.60;;
32455;SDS011;18912;43.270;27.942;2023-03-05T13:08:10;57.00;;;23.90;;
32455;SDS011;18912;43.270;27.942;2023-03-05T13:10:54;54.42;;;23.20;;
32455;SDS011;18912;43.270;27.942;2023-03-05T13:13:26;59.10;;;25.52;;
32455;SDS011;18912;43.270;27.942;2023-03-05T13:15:53;67.75;;;25.75;;
32455;SDS011;18912;43.270;27.942;2023-03-05T13:18:20;61.73;;;23.47;;
32455;SDS011;18912;43.270;27.942;2023-03-05T13:20:59;54.55;;;22.42;;
32455;SDS011;18912;43.270;27.942;2023-03-05T13:23:26;60.28;;;22.92;;
32455;SDS011;18912;43.270;27.942;2023-03-05T13:26:00;58.72;;;23.27;;
32455;SDS011;18912;43.270;27.942;2023-03-05T13:28:43;62.50;;;24.23;;
32455;SDS011;18912;43.270;27.942;2023-03-05T13:31:15;50.80;;;22.77;;
32455;SDS011;18912;43.270;27.942;2023-03-05T13:33:50;49.60;;;21.83;;
32455;SDS011;18912;43.270;27.942;2023-03-05T13:36:18;61.30;;;23.50;;
32455;SDS011;18912;43.270;27.942;2023-03-05T13:38:45;59.22;;;22.90;;
32455;SDS011;18912;43.270;27.942;2023-03-05T13:43:44;66.93;;;25.08;;
32455;SDS011;18912;43.270;27.942;2023-03-05T13:46:11;61.67;;;25.75;;
32455;SDS011;18912;43.270;27.942;2023-03-05T13:48:37;60.57;;;23.93;;
32455;SDS011;18912;43.270;27.942;2023-03-05T13:51:05;59.67;;;24.30;;
32455;SDS011;18912;43.270;27.942;2023-03-05T13:53:33;76.10;;;26.17;;
32455;SDS011;18912;43.270;27.942;2023-03-05T13:56:00;72.20;;;26.37;;
32455;SDS011;18912;43.270;27.942;2023-03-05T14:01:32;62.75;;;26.02;;
32455;SDS011;18912;43.270;27.942;2023-03-05T14:06:31;66.05;;;25.23;;
32455;SDS011;18912;43.270;27.942;2023-03-05T14:09:06;68.38;;;27.42;;
32455;SDS011;18912;43.270;27.942;2023-03-05T14:11:49;67.75;;;26.05;;
32455;SDS011;18912;43.270;27.942;2023-03-05T14:14:20;61.50;;;24.70;;
32455;SDS011;18912;43.270;27.942;2023-03-05T14:16:47;68.35;;;26.90;;
32455;SDS011;18912;43.270;27.942;2023-03-05T14:24:59;66.40;;;26.30;;
32455;SDS011;18912;43.270;27.942;2023-03-05T14:27:25;72.15;;;26.05;;
32455;SDS011;18912;43.270;27.942;2023-03-05T14:29:55;82.45;;;28.02;;
32455;SDS011;18912;43.270;27.942;2023-03-05T14:32:26;75.77;;;26.50;;
32455;SDS011;18912;43.270;27.942;2023-03-05T14:34:57;74.38;;;28.73;;
32455;SDS011;18912;43.270;27.942;2023-03-05T14:39:59;73.78;;;29.40;;
32455;SDS011;18912;43.270;27.942;2023-03-05T14:42:35;70.68;;;28.70;;
32455;SDS011;18912;43.270;27.942;2023-03-05T14:45:32;72.13;;;26.77;;
32455;SDS011;18912;43.270;27.942;2023-03-05T14:48:00;81.72;;;28.92;;
32455;SDS011;18912;43.270;27.942;2023-03-05T14:50:29;97.85;;;38.25;;
32455;SDS011;18912;43.270;27.942;2023-03-05T14:52:59;89.38;;;35.55;;
32455;SDS011;18912;43.270;27.942;2023-03-05T14:55:30;70.63;;;28.13;;
32455;SDS011;18912;43.270;27.942;2023-03-05T14:57:59;82.60;;;28.27;;
32455;SDS011;18912;43.270;27.942;2023-03-05T15:00:28;77.82;;;29.55;;
32455;SDS011;18912;43.270;27.942;2023-03-05T15:02:54;79.23;;;30.20;;
32455;SDS011;18912;43.270;27.942;2023-03-05T15:05:19;75.97;;;28.80;;
32455;SDS011;18912;43.270;27.942;2023-03-05T15:07:45;84.17;;;31.17;;
32455;SDS011;18912;43.270;27.942;2023-03-05T15:10:15;94.18;;;34.13;;
32455;SDS011;18912;43.270;27.942;2023-03-05T15:12:45;98.88;;;34.47;;
32455;SDS011;18912;43.270;27.942;2023-03-05T15:15:14;98.03;;;38.63;;
32455;SDS011;18912;43.270;27.942;2023-03-05T15:17:41;86.20;;;36.65;;
32455;SDS011;18912;43.270;27.942;2023-03-05T15:20:17;80.28;;;29.05;;
32455;SDS011;18912;43.270;27.942;2023-03-05T15:22:50;76.10;;;28.50;;
32455;SDS011;18912;43.270;27.942;2023-03-05T15:25:16;88.95;;;33.60;;
32455;SDS011;18912;43.270;27.942;2023-03-05T15:27:43;88.72;;;34.10;;
32455;SDS011;18912;43.270;27.942;2023-03-05T15:30:43;94.57;;;35.40;;
32455;SDS011;18912;43.270;27.942;2023-03-05T15:33:10;90.60;;;33.95;;
32455;SDS011;18912;43.270;27.942;2023-03-05T15:35:38;100.97;;;37.08;;
32455;SDS011;18912;43.270;27.942;2023-03-05T15:38:04;87.38;;;33.10;;
32455;SDS011;18912;43.270;27.942;2023-03-05T15:40:30;74.30;;;30.03;;
32455;SDS011;18912;43.270;27.942;2023-03-05T15:42:56;78.77;;;31.07;;
32455;SDS011;18912;43.270;27.942;2023-03-05T15:45:22;81.75;;;29.92;;
32455;SDS011;18912;43.270;27.942;2023-03-05T15:47:49;80.38;;;30.98;;
32455;SDS011;18912;43.270;27.942;2023-03-05T15:50:16;92.53;;;33.58;;
32455;SDS011;18912;43.270;27.942;2023-03-05T15:52:42;85.85;;;30.13;;
32455;SDS011;18912;43.270;27.942;2023-03-05T15:55:08;54.13;;;20.53;;
32455;SDS011;18912;43.270;27.942;2023-03-05T15:57:37;75.85;;;30.52;;
32455;SDS011;18912;43.270;27.942;2023-03-05T16:00:08;74.72;;;29.50;;
32455;SDS011;18912;43.270;27.942;2023-03-05T16:02:34;82.82;;;30.45;;
32455;SDS011;18912;43.270;27.942;2023-03-05T16:05:00;119.07;;;49.93;;
32455;SDS011;18912;43.270;27.942;2023-03-05T16:07:27;122.97;;;48.65;;
32455;SDS011;18912;43.270;27.942;2023-03-05T16:12:21;78.45;;;30.05;;
32455;SDS011;18912;43.270;27.942;2023-03-05T16:14:50;77.22;;;27.58;;
32455;SDS011;18912;43.270;27.942;2023-03-05T16:17:16;91.60;;;32.58;;
32455;SDS011;18912;43.270;27.942;2023-03-05T16:19:44;80.18;;;30.60;;
32455;SDS011;18912;43.270;27.942;2023-03-05T16:22:12;79.57;;;31.27;;
32455;SDS011;18912;43.270;27.942;2023-03-05T16:24:38;84.55;;;33.95;;
32455;SDS011;18912;43.270;27.942;2023-03-05T16:27:04;88.63;;;30.63;;
32455;SDS011;18912;43.270;27.942;2023-03-05T16:29:30;81.40;;;29.73;;
32455;SDS011;18912;43.270;27.942;2023-03-05T16:32:00;86.65;;;30.95;;